createdAt,value
2023-05-15T00:00:15.169Z,11.77
2023-05-15T00:02:41.623Z,5.63
2023-05-15T00:05:08.399Z,7.35
2023-05-15T00:07:35.254Z,6.07
2023-05-15T00:10:01.754Z,5.10
2023-05-15T00:12:28.908Z,6.03
2023-05-15T00:14:55.340Z,9.15
2023-05-15T00:17:21.817Z,9.68
2023-05-15T00:19:48.236Z,5.93
2023-05-15T00:22:14.624Z,8.43
2023-05-15T00:24:41.010Z,4.57
2023-05-15T00:27:07.505Z,5.07
2023-05-15T00:29:33.897Z,7.90
2023-05-15T00:32:00.371Z,4.65
2023-05-15T00:34:26.758Z,7.10
2023-05-15T00:36:53.125Z,7.88
2023-05-15T00:39:19.527Z,5.53
2023-05-15T00:41:46.859Z,9.50
2023-05-15T00:44:13.319Z,5.80
2023-05-15T00:46:39.922Z,10.57
2023-05-15T00:49:07.047Z,11.23
2023-05-15T00:51:33.382Z,11.32
2023-05-15T00:53:59.863Z,12.43
2023-05-15T00:56:27.780Z,10.18
2023-05-15T00:58:54.098Z,8.48
2023-05-15T01:01:20.698Z,4.80
2023-05-15T01:03:47.111Z,9.57
2023-05-15T01:06:13.591Z,7.57
2023-05-15T01:08:43.499Z,5.40
2023-05-15T01:11:10.310Z,5.60
2023-05-15T01:13:36.675Z,5.05
2023-05-15T01:16:03.156Z,6.25
2023-05-15T01:18:32.487Z,4.25
2023-05-15T01:21:02.861Z,7.55
2023-05-15T01:23:52.254Z,4.88
2023-05-15T01:26:31.824Z,7.28
2023-05-15T01:29:01.388Z,5.20
2023-05-15T01:31:30.841Z,5.03
2023-05-15T01:33:59.162Z,6.55
2023-05-15T01:36:30.235Z,4.78
2023-05-15T01:38:57.988Z,5.47
2023-05-15T01:41:42.986Z,3.88
2023-05-15T01:44:17.063Z,4.63
2023-05-15T01:46:45.290Z,4.30
2023-05-15T01:49:13.399Z,7.93
2023-05-15T01:51:40.509Z,2.33
2023-05-15T01:54:08.128Z,2.28
2023-05-15T01:56:35.955Z,6.70
2023-05-15T01:59:02.982Z,2.75
2023-05-15T02:01:29.974Z,5.53
2023-05-15T02:03:56.626Z,7.18
2023-05-15T02:06:24.069Z,6.45
2023-05-15T02:08:51.182Z,9.10
2023-05-15T02:11:17.678Z,6.22
2023-05-15T02:13:44.525Z,10.15
2023-05-15T02:16:10.930Z,5.63
2023-05-15T02:18:38.107Z,7.53
2023-05-15T02:21:04.613Z,8.77
2023-05-15T02:23:30.964Z,4.05
2023-05-15T02:26:16.203Z,4.28
2023-05-15T02:29:01.000Z,6.88
2023-05-15T02:31:32.455Z,7.78
2023-05-15T02:34:12.907Z,8.25
2023-05-15T02:36:40.880Z,3.30
2023-05-15T02:39:08.214Z,5.20
2023-05-15T02:41:36.727Z,5.88
2023-05-15T02:44:03.722Z,6.80
2023-05-15T02:46:30.277Z,6.38
2023-05-15T02:48:56.705Z,5.82
2023-05-15T02:51:23.120Z,8.05
2023-05-15T02:53:49.687Z,7.50
2023-05-15T02:56:16.158Z,8.05
2023-05-15T02:58:42.570Z,7.13
2023-05-15T03:01:08.945Z,8.75
2023-05-15T03:03:35.353Z,7.68
2023-05-15T03:06:01.727Z,5.32
2023-05-15T03:08:28.671Z,8.98
2023-05-15T03:10:55.015Z,8.82
2023-05-15T03:13:21.381Z,11.02
2023-05-15T03:15:47.734Z,6.32
2023-05-15T03:18:15.320Z,10.82
2023-05-15T03:20:43.642Z,8.13
2023-05-15T03:23:09.960Z,7.20
2023-05-15T03:25:36.431Z,10.93
2023-05-15T03:28:02.817Z,5.75
2023-05-15T03:30:29.226Z,5.43
2023-05-15T03:32:57.527Z,10.60
2023-05-15T03:35:24.795Z,10.05
2023-05-15T03:37:51.361Z,12.98
2023-05-15T03:40:17.862Z,10.07
2023-05-15T03:42:44.251Z,11.50
2023-05-15T03:45:10.746Z,11.52
2023-05-15T03:47:37.226Z,4.85
2023-05-15T03:50:03.998Z,5.38
2023-05-15T03:52:30.410Z,13.93
2023-05-15T03:54:56.750Z,8.23
2023-05-15T03:57:23.207Z,9.05
2023-05-15T03:59:49.531Z,10.05
2023-05-15T04:02:15.950Z,6.15
2023-05-15T04:04:42.407Z,10.38
2023-05-15T04:07:08.783Z,12.50
2023-05-15T04:09:35.146Z,8.98
2023-05-15T04:12:01.521Z,7.97
2023-05-15T04:14:28.015Z,5.70
2023-05-15T04:16:54.321Z,7.63
2023-05-15T04:19:20.965Z,7.28
2023-05-15T04:21:47.360Z,6.35
2023-05-15T04:24:13.689Z,5.38
2023-05-15T04:26:40.109Z,7.70
2023-05-15T04:29:06.589Z,12.15
2023-05-15T04:31:35.183Z,12.05
2023-05-15T04:34:01.744Z,7.65
2023-05-15T04:36:28.157Z,14.80
2023-05-15T04:38:54.506Z,5.53
2023-05-15T04:41:20.984Z,7.25
2023-05-15T04:43:47.345Z,8.40
2023-05-15T04:46:13.714Z,11.48
2023-05-15T04:48:40.115Z,12.27
2023-05-15T04:51:07.524Z,9.90
2023-05-15T04:53:33.879Z,11.93
2023-05-15T04:56:00.203Z,8.82
2023-05-15T04:58:26.565Z,7.97
2023-05-15T05:00:52.938Z,4.60
2023-05-15T05:03:19.428Z,6.43
2023-05-15T05:05:46.018Z,8.88
2023-05-15T05:08:12.360Z,6.50
2023-05-15T05:10:38.679Z,11.35
2023-05-15T05:13:05.008Z,6.90
2023-05-15T05:15:31.359Z,5.85
2023-05-15T05:17:57.832Z,12.90
2023-05-15T05:20:24.249Z,6.90
2023-05-15T05:22:50.648Z,11.55
2023-05-15T05:25:17.072Z,10.20
2023-05-15T05:27:43.408Z,7.25
2023-05-15T05:30:10.038Z,11.20
2023-05-15T05:32:36.447Z,7.30
2023-05-15T05:35:04.234Z,11.10
2023-05-15T05:37:30.605Z,12.30
2023-05-15T05:39:56.949Z,16.88
2023-05-15T05:42:23.308Z,13.98
2023-05-15T05:44:49.714Z,9.30
2023-05-15T05:47:16.512Z,14.68
2023-05-15T05:49:43.521Z,13.63
2023-05-15T05:52:09.906Z,13.80
2023-05-15T05:54:36.492Z,9.57
2023-05-15T05:57:02.907Z,11.27
2023-05-15T05:59:29.661Z,9.15
2023-05-15T06:01:56.282Z,13.95
2023-05-15T06:04:22.677Z,15.90
2023-05-15T06:06:50.190Z,12.18
2023-05-15T06:09:16.812Z,14.93
2023-05-15T06:11:43.231Z,9.18
2023-05-15T06:14:09.569Z,14.55
2023-05-15T06:16:35.971Z,11.50
2023-05-15T06:19:02.609Z,20.13
2023-05-15T06:21:29.021Z,16.52
2023-05-15T06:23:55.544Z,9.57
2023-05-15T06:26:22.313Z,16.33
2023-05-15T06:28:48.691Z,16.58
2023-05-15T06:31:15.078Z,6.95
2023-05-15T06:33:41.447Z,16.85
2023-05-15T06:36:07.860Z,16.90
2023-05-15T06:38:34.284Z,17.75
2023-05-15T06:41:00.697Z,16.77
2023-05-15T06:43:27.003Z,18.17
2023-05-15T06:45:53.524Z,14.80
2023-05-15T06:48:20.033Z,16.38
2023-05-15T06:50:46.553Z,16.60
2023-05-15T06:53:14.541Z,14.05
2023-05-15T06:55:41.201Z,20.08
2023-05-15T06:58:07.593Z,16.20
2023-05-15T07:00:33.916Z,23.15
2023-05-15T07:03:00.399Z,14.65
2023-05-15T07:05:26.938Z,16.13
2023-05-15T07:07:53.687Z,17.42
2023-05-15T07:10:20.118Z,20.67
2023-05-15T07:12:46.503Z,19.67
2023-05-15T07:15:12.896Z,16.17
2023-05-15T07:17:39.342Z,25.05
2023-05-15T07:20:06.122Z,19.27
2023-05-15T07:22:34.383Z,11.73
2023-05-15T07:25:02.783Z,19.10
2023-05-15T07:27:29.138Z,10.73
2023-05-15T07:29:55.488Z,17.48
2023-05-15T07:32:21.863Z,18.92
2023-05-15T07:34:48.373Z,23.35
2023-05-15T07:37:16.763Z,19.48
2023-05-15T07:39:43.445Z,22.50
2023-05-15T07:42:09.898Z,21.88
2023-05-15T07:44:36.218Z,24.80
2023-05-15T07:47:02.621Z,17.23
2023-05-15T07:49:29.070Z,12.40
2023-05-15T07:51:55.650Z,21.73
2023-05-15T07:54:22.244Z,15.02
2023-05-15T07:56:48.914Z,18.15
2023-05-15T07:59:15.316Z,15.25
2023-05-15T08:01:41.912Z,21.90
2023-05-15T08:04:09.260Z,22.33
2023-05-15T08:06:38.149Z,19.52
2023-05-15T08:09:04.527Z,26.60
2023-05-15T08:11:31.087Z,19.13
2023-05-15T08:13:57.463Z,23.88
2023-05-15T08:16:23.920Z,36.30
2023-05-15T08:18:53.491Z,15.23
2023-05-15T08:21:21.573Z,38.63
2023-05-15T08:23:47.960Z,28.25
2023-05-15T08:26:14.296Z,34.67
2023-05-15T08:28:40.758Z,39.63
2023-05-15T08:31:07.181Z,47.97
2023-05-15T08:33:33.527Z,41.38
2023-05-15T08:35:59.950Z,37.63
2023-05-15T08:38:26.328Z,42.10
2023-05-15T08:40:53.803Z,14.38
2023-05-15T08:43:21.561Z,32.45
2023-05-15T08:45:48.897Z,35.20
2023-05-15T08:48:16.782Z,36.20
2023-05-15T08:50:44.352Z,32.85
2023-05-15T08:53:13.894Z,22.13
2023-05-15T08:55:40.794Z,30.10
2023-05-15T08:58:07.699Z,33.58
2023-05-15T09:00:35.005Z,31.63
2023-05-15T09:03:01.859Z,31.80
2023-05-15T09:05:28.732Z,9.88
2023-05-15T09:07:55.665Z,27.35
2023-05-15T09:10:22.495Z,22.92
2023-05-15T09:12:50.900Z,23.10
2023-05-15T09:15:18.166Z,18.73
2023-05-15T09:17:45.446Z,18.35
2023-05-15T09:20:25.001Z,19.77
2023-05-15T09:22:51.314Z,20.60
2023-05-15T09:25:33.377Z,17.23
2023-05-15T09:28:00.135Z,17.60
2023-05-15T09:30:27.178Z,16.02
2023-05-15T09:32:54.722Z,20.85
2023-05-15T09:35:28.837Z,17.40
2023-05-15T09:38:00.155Z,15.98
2023-05-15T09:40:30.699Z,16.60
2023-05-15T09:42:57.779Z,19.05
2023-05-15T09:45:29.798Z,12.32
2023-05-15T09:47:57.490Z,18.60
2023-05-15T09:50:25.176Z,17.95
2023-05-15T09:52:51.796Z,19.23
2023-05-15T09:55:21.249Z,21.80
2023-05-15T09:58:04.858Z,14.07
2023-05-15T10:00:32.569Z,21.65
2023-05-15T10:03:00.904Z,18.15
2023-05-15T10:05:41.979Z,17.55
2023-05-15T10:08:09.693Z,17.50
2023-05-15T10:10:36.019Z,12.13
2023-05-15T10:13:06.106Z,10.88
2023-05-15T10:15:32.709Z,11.77
2023-05-15T10:17:59.299Z,12.05
2023-05-15T10:20:26.619Z,9.68
2023-05-15T10:22:54.940Z,9.00
2023-05-15T10:25:21.375Z,6.85
2023-05-15T10:27:49.524Z,7.68
2023-05-15T10:30:17.028Z,5.78
2023-05-15T10:32:44.760Z,6.60
2023-05-15T10:35:14.444Z,5.05
2023-05-15T10:37:41.024Z,4.93
2023-05-15T10:40:09.344Z,3.22
2023-05-15T10:42:36.685Z,4.95
2023-05-15T10:45:03.415Z,9.73
2023-05-15T10:47:33.335Z,11.18
2023-05-15T10:49:59.894Z,5.07
2023-05-15T10:52:26.231Z,7.78
2023-05-15T10:54:52.971Z,8.45
2023-05-15T10:57:21.260Z,10.00
2023-05-15T10:59:47.694Z,12.20
2023-05-15T11:02:29.459Z,10.93
2023-05-15T11:04:59.502Z,7.95
2023-05-15T11:07:26.232Z,15.50
2023-05-15T11:09:53.559Z,11.50
2023-05-15T11:12:20.255Z,9.25
2023-05-15T11:14:55.804Z,10.38
2023-05-15T11:17:25.026Z,6.75
2023-05-15T11:19:51.402Z,12.45
2023-05-15T11:22:31.796Z,7.07
2023-05-15T11:25:05.694Z,7.10
2023-05-15T11:27:32.172Z,10.40
2023-05-15T11:30:25.328Z,6.75
2023-05-15T11:33:03.032Z,12.13
2023-05-15T11:35:30.645Z,7.53
2023-05-15T11:37:58.289Z,13.50
2023-05-15T11:40:26.225Z,16.92
2023-05-15T11:43:02.221Z,10.27
2023-05-15T11:47:54.895Z,15.50
2023-05-15T11:50:21.587Z,13.63
2023-05-15T11:52:49.449Z,8.63
2023-05-15T11:55:16.474Z,10.35
2023-05-15T11:57:42.807Z,10.70
2023-05-15T12:00:10.213Z,9.68
2023-05-15T12:02:36.640Z,14.57
2023-05-15T12:05:03.186Z,13.07
2023-05-15T12:07:29.582Z,11.32
2023-05-15T12:09:55.980Z,9.23
2023-05-15T12:12:23.411Z,10.63
2023-05-15T12:14:49.732Z,10.27
2023-05-15T12:17:16.092Z,12.30
2023-05-15T12:19:42.508Z,12.43
2023-05-15T12:22:08.981Z,11.23
2023-05-15T12:24:39.669Z,14.82
2023-05-15T12:27:06.889Z,9.40
2023-05-15T12:29:33.405Z,10.13
2023-05-15T12:31:59.946Z,11.48
2023-05-15T12:34:26.663Z,14.35
2023-05-15T12:36:53.029Z,17.42
2023-05-15T12:39:19.397Z,9.80
2023-05-15T12:41:47.681Z,12.52
2023-05-15T12:44:18.234Z,9.75
2023-05-15T12:46:45.319Z,10.75
2023-05-15T12:49:11.835Z,5.28
2023-05-15T12:51:44.371Z,4.90
2023-05-15T12:54:20.538Z,10.38
2023-05-15T12:56:47.584Z,10.07
2023-05-15T12:59:14.065Z,5.82
2023-05-15T13:01:42.197Z,5.35
2023-05-15T13:04:09.257Z,3.40
2023-05-15T13:06:45.837Z,7.85
2023-05-15T13:09:13.638Z,8.68
2023-05-15T13:11:43.337Z,3.55
2023-05-15T13:14:16.959Z,4.65
2023-05-15T13:16:43.626Z,6.57
2023-05-15T13:19:10.035Z,3.78
2023-05-15T13:21:36.346Z,4.13
2023-05-15T13:24:02.792Z,4.85
2023-05-15T13:26:29.144Z,6.40
2023-05-15T13:28:55.594Z,4.50
2023-05-15T13:31:22.463Z,2.95
2023-05-15T13:33:48.871Z,4.38
2023-05-15T13:36:15.329Z,6.05
2023-05-15T13:38:41.650Z,4.50
2023-05-15T13:41:09.146Z,3.70
2023-05-15T13:43:35.555Z,8.80
2023-05-15T13:46:01.959Z,2.63
2023-05-15T13:48:28.341Z,4.72
2023-05-15T13:50:54.815Z,4.95
2023-05-15T13:53:21.270Z,7.75
2023-05-15T13:55:47.723Z,9.55
2023-05-15T13:58:14.362Z,6.28
2023-05-15T14:00:44.305Z,3.92
2023-05-15T14:03:12.740Z,5.57
2023-05-15T14:05:41.166Z,4.53
2023-05-15T14:08:07.567Z,5.00
2023-05-15T14:10:33.906Z,7.93
2023-05-15T14:13:01.063Z,6.93
2023-05-15T14:15:27.512Z,4.60
2023-05-15T14:17:54.290Z,7.95
2023-05-15T14:20:20.866Z,5.13
2023-05-15T14:22:47.169Z,5.72
2023-05-15T14:25:13.537Z,11.57
2023-05-15T14:27:40.027Z,6.97
2023-05-15T14:30:06.707Z,8.70
2023-05-15T14:32:33.071Z,10.15
2023-05-15T14:35:00.108Z,7.13
2023-05-15T14:37:27.493Z,8.35
2023-05-15T14:39:53.891Z,16.25
2023-05-15T14:42:21.110Z,8.02
2023-05-15T14:44:47.434Z,10.55
2023-05-15T14:47:13.879Z,7.15
2023-05-15T14:49:40.509Z,11.15
2023-05-15T14:52:08.497Z,11.70
2023-05-15T14:54:37.895Z,8.57
2023-05-15T14:57:04.484Z,10.30
2023-05-15T14:59:30.861Z,8.63
2023-05-15T15:01:57.421Z,8.50
2023-05-15T15:04:23.962Z,8.00
2023-05-15T15:06:50.405Z,10.88
2023-05-15T15:09:18.288Z,6.50
2023-05-15T15:11:45.942Z,5.78
2023-05-15T15:14:12.287Z,10.52
2023-05-15T15:16:38.692Z,9.70
2023-05-15T15:19:05.686Z,11.80
2023-05-15T15:21:32.102Z,12.75
2023-05-15T15:23:58.468Z,15.77
2023-05-15T15:26:24.808Z,10.75
2023-05-15T15:28:51.145Z,12.13
2023-05-15T15:31:17.563Z,17.38
2023-05-15T15:33:45.156Z,9.77
2023-05-15T15:36:11.519Z,11.32
2023-05-15T15:38:41.682Z,7.97
2023-05-15T15:41:08.672Z,10.15
2023-05-15T15:43:34.992Z,9.60
2023-05-15T15:46:01.384Z,13.60
2023-05-15T15:48:27.771Z,11.68
2023-05-15T15:50:54.117Z,11.70
2023-05-15T15:53:21.621Z,14.25
2023-05-15T15:55:47.916Z,12.90
2023-05-15T15:58:14.735Z,11.45
2023-05-15T16:00:44.059Z,14.52
2023-05-15T16:03:10.906Z,15.30
2023-05-15T16:05:37.337Z,13.02
2023-05-15T16:08:03.887Z,15.32
2023-05-15T16:10:30.561Z,17.27
2023-05-15T16:12:57.220Z,15.85
2023-05-15T16:15:24.250Z,8.55
2023-05-15T16:17:54.883Z,18.98
2023-05-15T16:20:21.867Z,18.17
2023-05-15T16:22:48.277Z,19.13
2023-05-15T16:25:14.623Z,14.93
2023-05-15T16:27:40.993Z,13.25
2023-05-15T16:30:07.981Z,15.45
2023-05-15T16:32:34.389Z,27.00
2023-05-15T16:35:01.044Z,18.13
2023-05-15T16:37:27.512Z,12.93
2023-05-15T16:39:53.830Z,23.40
2023-05-15T16:42:20.247Z,16.00
2023-05-15T16:44:46.980Z,14.82
2023-05-15T16:47:13.294Z,13.15
2023-05-15T16:49:40.933Z,9.68
2023-05-15T16:52:08.995Z,15.63
2023-05-15T16:54:35.362Z,14.05
2023-05-15T16:57:01.655Z,11.07
2023-05-15T16:59:28.109Z,9.73
2023-05-15T17:01:54.511Z,7.65
2023-05-15T17:04:20.832Z,14.23
2023-05-15T17:06:47.150Z,17.55
2023-05-15T17:09:13.792Z,10.38
2023-05-15T17:11:40.321Z,9.38
2023-05-15T17:14:06.662Z,13.48
2023-05-15T17:16:33.067Z,11.07
2023-05-15T17:18:59.557Z,7.70
2023-05-15T17:21:26.077Z,10.57
2023-05-15T17:23:53.292Z,11.38
2023-05-15T17:26:19.730Z,9.30
2023-05-15T17:28:46.264Z,9.55
2023-05-15T17:31:12.710Z,12.73
2023-05-15T17:33:39.127Z,9.02
2023-05-15T17:36:05.765Z,7.20
2023-05-15T17:38:32.213Z,14.95
2023-05-15T17:40:58.636Z,12.52
2023-05-15T17:43:24.935Z,8.73
2023-05-15T17:45:51.481Z,11.02
2023-05-15T17:48:17.937Z,12.50
2023-05-15T17:50:44.350Z,14.70
2023-05-15T17:53:10.835Z,15.18
2023-05-15T17:55:37.418Z,14.05
2023-05-15T17:58:03.825Z,14.02
2023-05-15T18:00:30.365Z,18.15
2023-05-15T18:02:56.911Z,10.55
2023-05-15T18:05:23.643Z,10.57
2023-05-15T18:07:50.221Z,15.13
2023-05-15T18:10:16.541Z,16.70
2023-05-15T18:12:43.083Z,12.65
2023-05-15T18:15:09.662Z,8.00
2023-05-15T18:17:36.038Z,14.13
2023-05-15T18:20:04.935Z,12.95
2023-05-15T18:22:31.554Z,16.40
2023-05-15T18:24:58.029Z,15.05
2023-05-15T18:27:24.478Z,14.02
2023-05-15T18:29:51.555Z,17.05
2023-05-15T18:32:19.304Z,13.85
2023-05-15T18:34:46.928Z,14.70
2023-05-15T18:37:13.706Z,17.05
2023-05-15T18:39:40.166Z,17.10
2023-05-15T18:42:06.767Z,13.02
2023-05-15T18:44:34.812Z,10.18
2023-05-15T18:47:01.540Z,17.00
2023-05-15T18:49:29.204Z,15.38
2023-05-15T18:51:55.663Z,13.65
2023-05-15T18:54:22.037Z,15.88
2023-05-15T18:56:48.335Z,13.02
2023-05-15T18:59:14.740Z,14.85
2023-05-15T19:01:41.215Z,14.77
2023-05-15T19:04:08.615Z,18.60
2023-05-15T19:06:35.079Z,15.52
2023-05-15T19:09:01.557Z,13.00
2023-05-15T19:11:28.397Z,15.68
2023-05-15T19:13:54.800Z,14.40
2023-05-15T19:16:21.277Z,15.65
2023-05-15T19:18:47.786Z,22.15
2023-05-15T19:21:18.637Z,18.75
2023-05-15T19:23:45.002Z,21.00
2023-05-15T19:26:11.493Z,9.80
2023-05-15T19:28:37.871Z,20.00
2023-05-15T19:31:14.001Z,15.27
2023-05-15T19:33:43.694Z,12.07
2023-05-15T19:36:10.234Z,21.52
2023-05-15T19:38:36.553Z,13.13
2023-05-15T19:41:02.992Z,15.13
2023-05-15T19:43:29.317Z,9.25
2023-05-15T19:45:55.849Z,14.02
2023-05-15T19:48:22.219Z,14.73
2023-05-15T19:50:48.676Z,16.02
2023-05-15T19:53:15.151Z,17.05
2023-05-15T19:55:41.532Z,11.40
2023-05-15T19:58:08.152Z,15.18
2023-05-15T20:00:34.602Z,13.75
2023-05-15T20:03:01.413Z,8.73
2023-05-15T20:05:28.557Z,13.07
2023-05-15T20:07:55.003Z,12.02
2023-05-15T20:10:21.653Z,9.55
2023-05-15T20:12:48.042Z,9.80
2023-05-15T20:15:14.978Z,10.32
2023-05-15T20:17:41.711Z,21.05
2023-05-15T20:20:12.108Z,13.80
2023-05-15T20:22:42.404Z,17.73
2023-05-15T20:25:08.977Z,17.00
2023-05-15T20:27:35.823Z,9.13
2023-05-15T20:30:02.805Z,10.07
2023-05-15T20:32:29.325Z,9.25
2023-05-15T20:34:56.187Z,12.20
2023-05-15T20:37:27.268Z,15.80
2023-05-15T20:39:54.552Z,16.58
2023-05-15T20:42:21.428Z,12.63
2023-05-15T20:44:47.792Z,11.68
2023-05-15T20:47:14.590Z,12.10
2023-05-15T20:49:41.063Z,13.07
2023-05-15T20:52:07.387Z,7.75
2023-05-15T20:54:33.736Z,13.48
2023-05-15T20:57:00.135Z,9.32
2023-05-15T20:59:26.651Z,15.55
2023-05-15T21:01:53.045Z,9.52
2023-05-15T21:04:19.358Z,8.45
2023-05-15T21:06:45.813Z,10.43
2023-05-15T21:09:16.589Z,11.15
2023-05-15T21:11:42.930Z,7.88
2023-05-15T21:14:09.350Z,9.23
2023-05-15T21:16:36.397Z,12.77
2023-05-15T21:19:02.938Z,15.57
2023-05-15T21:21:29.299Z,17.23
2023-05-15T21:23:55.833Z,11.98
2023-05-15T21:26:22.450Z,18.00
2023-05-15T21:28:48.848Z,9.18
2023-05-15T21:31:15.405Z,8.70
2023-05-15T21:33:41.818Z,10.93
2023-05-15T21:36:08.380Z,11.77
2023-05-15T21:38:34.875Z,10.30
2023-05-15T21:41:01.544Z,13.45
2023-05-15T21:43:28.084Z,10.48
2023-05-15T21:45:55.282Z,12.82
2023-05-15T21:48:22.081Z,10.48
2023-05-15T21:50:48.598Z,20.17
2023-05-15T21:53:15.163Z,10.15
2023-05-15T21:55:41.569Z,10.73
2023-05-15T21:58:07.943Z,12.52
2023-05-15T22:00:34.257Z,9.52
2023-05-15T22:03:00.908Z,13.50
2023-05-15T22:05:27.592Z,8.68
2023-05-15T22:07:53.988Z,7.72
2023-05-15T22:10:20.331Z,10.88
2023-05-15T22:12:47.023Z,10.65
2023-05-15T22:15:16.224Z,12.57
2023-05-15T22:17:42.699Z,9.93
2023-05-15T22:20:12.320Z,6.10
2023-05-15T22:22:39.447Z,12.05
2023-05-15T22:25:06.382Z,18.98
2023-05-15T22:27:33.224Z,10.13
2023-05-15T22:29:59.779Z,10.70
2023-05-15T22:32:26.573Z,8.95
2023-05-15T22:34:53.025Z,17.05
2023-05-15T22:37:20.039Z,11.45
2023-05-15T22:39:46.489Z,9.48
2023-05-15T22:42:12.853Z,12.55
2023-05-15T22:44:39.341Z,12.90
2023-05-15T22:47:05.989Z,13.70
2023-05-15T22:49:32.362Z,8.55
2023-05-15T22:51:58.721Z,8.90
2023-05-15T22:54:25.244Z,9.48
2023-05-15T22:56:52.371Z,6.18
2023-05-15T22:59:19.119Z,15.98
2023-05-15T23:01:46.235Z,13.57
2023-05-15T23:04:13.237Z,14.25
2023-05-15T23:06:42.383Z,10.35
2023-05-15T23:09:08.814Z,10.95
2023-05-15T23:11:35.574Z,5.97
2023-05-15T23:14:02.959Z,5.35
2023-05-15T23:16:29.451Z,8.55
2023-05-15T23:18:56.147Z,13.27
2023-05-15T23:21:22.573Z,9.65
2023-05-15T23:23:49.096Z,12.32
2023-05-15T23:26:15.603Z,9.05
2023-05-15T23:28:42.004Z,9.90
2023-05-15T23:31:08.363Z,13.13
2023-05-15T23:33:34.740Z,7.10
2023-05-15T23:36:02.079Z,10.80
2023-05-15T23:38:28.458Z,10.57
2023-05-15T23:40:54.753Z,9.15
2023-05-15T23:43:21.199Z,10.32
2023-05-15T23:45:47.524Z,10.73
2023-05-15T23:48:13.950Z,21.02
2023-05-15T23:50:40.482Z,6.55
2023-05-15T23:53:07.424Z,16.90
2023-05-15T23:55:33.816Z,10.73
2023-05-15T23:58:00.241Z,7.18
